Time;durP1;ratioP1;P1;durP2;ratioP2;P2;SDS_P1;SDS_P2;PMS_P1;PMS_P2;Temp;Humidity;BMP_temperature;BMP_pressure;BME280_temperature;BME280_humidity;BME280_pressure;Samples;Min_cycle;Max_cycle;Signal;HPM_P1;HPM_P2
2021/12/09 00:01:01;;;;;;;;;;;;;;;;;;2205444;67;1970;-67
2021/12/09 00:03:39;;;;;;;;;;;;;;;;;;2206280;59;1362;-68
2021/12/09 00:06:15;;;;;;;;;;;;;;;;;;2205296;59;1245;-68
2021/12/09 00:08:48;;;;;;;;;;;;;;;;;;2205877;59;1133;-68
2021/12/09 00:11:21;;;;;;;;;;;;;;;;;;2205941;59;1302;-67
2021/12/09 00:13:54;;;;;;;;;;;;;;;;;;2206351;59;1244;-67
2021/12/09 00:16:27;;;;;;;;;;;;;;;;;;2204575;67;1229;-68
2021/12/09 00:19:03;;;;;;;;;;;;;;;;;;2207965;67;1196;-68
2021/12/09 00:21:37;;;;;;;;;;;;;;;;;;2207144;59;1984;-67
2021/12/09 00:24:10;;;;;;;;;;;;;;;;;;2207730;59;1609;-68
2021/12/09 00:26:44;;;;;;;;;;;;;;;;;;2207361;59;1269;-68
2021/12/09 00:29:18;;;;;;;;;;;;;;;;;;2206880;59;1567;-68
2021/12/09 00:31:52;;;;;;;;;;;;;;;;;;2206565;59;1365;-68
2021/12/09 00:34:35;;;;;;;;;;;;;;;;;;2207408;67;1137;-68
2021/12/09 00:37:17;;;;;;;;;;;;;;;;;;2207253;59;1297;-67
2021/12/09 00:39:51;;;;;;;;;;;;;;;;;;2206226;67;1246;-68
2021/12/09 00:42:26;;;;;;;;;;;;;;;;;;2207065;67;1930;-68
2021/12/09 00:44:59;;;;;;;;;;;;;;;;;;2207935;59;1194;-68
2021/12/09 00:47:33;;;;;;;;;;;;;;;;;;2207268;67;1345;-68
2021/12/09 00:50:10;;;;;;;;;;;;;;;;;;2207121;59;1282;-68
2021/12/09 00:52:43;;;;;;;;;;;;;;;;;;2207617;59;1315;-68
2021/12/09 00:55:17;;;;;;;;;;;;;;;;;;2207359;67;1232;-68
2021/12/09 00:57:50;;;;;;;;;;;;;;;;;;2206769;67;1157;-68
2021/12/09 01:00:24;;;;;;;;;;;;;;;;;;2206483;59;1900;-68
2021/12/09 01:02:57;;;;;;;;;;;;;;;;;;2206245;59;1992;-68
2021/12/09 01:05:33;;;;;;;;;;;;;;;;;;2205030;67;1394;-68
2021/12/09 01:08:07;;;;;;;;;;;;;;;;;;2206227;59;1212;-67
2021/12/09 01:10:40;;;;;;;;;;;;;;;;;;2204820;67;1249;-68
2021/12/09 01:13:13;;;;;;;;;;;;;;;;;;2207518;59;1492;-67
2021/12/09 01:15:47;;;;;;;;;;;;;;;;;;2205816;67;1103;-68
2021/12/09 01:18:20;;;;;;;;;;;;;;;;;;2205827;59;1458;-68
2021/12/09 01:20:57;;;;;;;;;;;;;;;;;;2207690;59;1935;-68
2021/12/09 01:23:30;;;;;;;;;;;;;;;;;;2207559;59;1462;-69
2021/12/09 01:26:06;;;;;;;;;;;;;;;;;;2207592;59;1213;-68
2021/12/09 01:28:45;;;;;;;;;;;;;;;;;;2206926;67;1300;-68
2021/12/09 01:31:23;;;;;;;;;;;;;;;;;;2207566;59;1551;-68
2021/12/09 01:34:01;;;;;;;;;;;;;;;;;;2203961;67;1251;-68
2021/12/09 01:36:37;;;;;;;;;;;;;;;;;;2207782;59;1351;-68
2021/12/09 01:39:11;;;;;;;;;;;;;;;;;;2207409;67;1161;-69
2021/12/09 01:41:44;;;;;;;;;;;;;;;;;;2207487;67;1929;-68
2021/12/09 01:44:18;;;;;;;;;;;;;;;;;;2207342;59;1192;-69
2021/12/09 01:46:51;;;;;;;;;;;;;;;;;;2207535;67;1114;-68
2021/12/09 01:49:24;;;;;;;;;;;;;;;;;;2207372;67;1153;-68
2021/12/09 01:52:00;;;;;;;;;;;;;;;;;;2208121;59;1301;-68
2021/12/09 01:54:34;;;;;;;;;;;;;;;;;;2206248;59;1212;-68
2021/12/09 01:57:08;;;;;;;;;;;;;;;;;;2206280;59;1115;-69
2021/12/09 01:59:41;;;;;;;;;;;;;;;;;;2207199;67;1288;-68
2021/12/09 02:02:14;;;;;;;;;;;;;;;;;;2206286;67;1924;-68
2021/12/09 02:04:47;;;;;;;;;;;;;;;;;;2204287;67;1210;-68
2021/12/09 02:07:23;;;;;;;;;;;;;;;;;;2206870;59;1208;-67
2021/12/09 02:09:57;;;;;;;;;;;;;;;;;;2206912;59;1615;-68
2021/12/09 02:12:30;;;;;;;;;;;;;;;;;;2207180;59;1417;-68
2021/12/09 02:15:03;;;;;;;;;;;;;;;;;;2207972;59;1366;-68
2021/12/09 02:17:37;;;;;;;;;;;;;;;;;;2207751;67;1260;-68
2021/12/09 02:20:11;;;;;;;;;;;;;;;;;;2207412;59;1791;-68
2021/12/09 02:22:48;;;;;;;;;;;;;;;;;;2206001;67;1997;-68
2021/12/09 02:25:22;;;;;;;;;;;;;;;;;;2207516;59;1135;-68
2021/12/09 02:27:55;;;;;;;;;;;;;;;;;;2208213;59;1159;-68
2021/12/09 02:30:28;;;;;;;;;;;;;;;;;;2207794;59;1465;-68
2021/12/09 02:33:01;;;;;;;;;;;;;;;;;;2207869;59;2412;-68
2021/12/09 02:35:38;;;;;;;;;;;;;;;;;;2208762;59;1175;-69
2021/12/09 02:38:18;;;;;;;;;;;;;;;;;;2207921;59;1609;-67
2021/12/09 02:40:52;;;;;;;;;;;;;;;;;;2208102;67;1249;-68
2021/12/09 02:43:29;;;;;;;;;;;;;;;;;;2207537;67;1925;-68
2021/12/09 02:46:04;;;;;;;;;;;;;;;;;;2207169;67;1161;-68
2021/12/09 02:48:37;;;;;;;;;;;;;;;;;;2205298;59;2358;-68
2021/12/09 02:51:11;;;;;;;;;;;;;;;;;;2211019;53;3538;-70
2021/12/09 02:53:51;;;;;;;;;;;;;;;;;;2209067;67;1128;-70
2021/12/09 02:56:34;;;;;;;;;;;;;;;;;;2210684;59;1194;-70
2021/12/09 02:59:08;;;;;;;;;;;;;;;;;;2211190;67;1113;-69
2021/12/09 03:01:50;;;;;;;;;;;;;;;;;;2210530;59;1924;-70
2021/12/09 03:04:24;;;;;;;;;;;;;;;;;;2210836;59;1187;-70
2021/12/09 03:06:57;;;;;;;;;;;;;;;;;;2211615;67;1078;-69
2021/12/09 03:09:34;;;;;;;;;;;;;;;;;;2211164;59;1358;-69
2021/12/09 03:12:12;;;;;;;;;;;;;;;;;;2210697;59;1264;-70
2021/12/09 03:14:49;;;;;;;;;;;;;;;;;;2210612;59;1419;-70
2021/12/09 03:17:26;;;;;;;;;;;;;;;;;;2211509;67;1151;-70
2021/12/09 03:19:59;;;;;;;;;;;;;;;;;;2212005;59;1660;-70
2021/12/09 03:22:32;;;;;;;;;;;;;;;;;;2210367;59;1929;-71
2021/12/09 03:25:10;;;;;;;;;;;;;;;;;;2209855;67;1125;-71
2021/12/09 03:27:44;;;;;;;;;;;;;;;;;;2206494;67;1287;-70
2021/12/09 03:30:20;;;;;;;;;;;;;;;;;;2211005;59;1407;-70
2021/12/09 03:32:55;;;;;;;;;;;;;;;;;;2210729;59;2160;-71
2021/12/09 03:35:28;;;;;;;;;;;;;;;;;;2211032;59;1302;-71
2021/12/09 03:38:01;;;;;;;;;;;;;;;;;;2207461;59;1984;-70
2021/12/09 03:40:37;;;;;;;;;;;;;;;;;;2210599;67;1350;-71
2021/12/09 03:43:11;;;;;;;;;;;;;;;;;;2209094;67;1928;-70
2021/12/09 03:45:44;;;;;;;;;;;;;;;;;;2210739;67;1280;-70
2021/12/09 03:48:18;;;;;;;;;;;;;;;;;;2211119;67;1120;-70
2021/12/09 03:50:51;;;;;;;;;;;;;;;;;;2211361;59;1313;-71
2021/12/09 03:53:25;;;;;;;;;;;;;;;;;;2211035;67;1097;-70
2021/12/09 03:56:02;;;;;;;;;;;;;;;;;;2210710;67;1225;-70
2021/12/09 03:58:35;;;;;;;;;;;;;;;;;;2211400;67;1271;-69
2021/12/09 04:01:09;;;;;;;;;;;;;;;;;;2210503;59;1230;-69
2021/12/09 04:03:42;;;;;;;;;;;;;;;;;;2209873;59;1940;-70
2021/12/09 04:06:16;;;;;;;;;;;;;;;;;;2205849;67;1896;-69
2021/12/09 04:08:50;;;;;;;;;;;;;;;;;;2211196;59;2219;-69
2021/12/09 04:11:26;;;;;;;;;;;;;;;;;;2211016;59;1345;-69
2021/12/09 04:13:59;;;;;;;;;;;;;;;;;;2208666;59;1808;-69
2021/12/09 04:16:33;;;;;;;;;;;;;;;;;;2209642;59;1316;-69
2021/12/09 04:19:10;;;;;;;;;;;;;;;;;;2209939;59;1403;-69
2021/12/09 04:21:44;;;;;;;;;;;;;;;;;;2205669;59;1924;-69
2021/12/09 04:24:22;;;;;;;;;;;;;;;;;;2209741;59;1929;-69
2021/12/09 04:27:07;;;;;;;;;;;;;;;;;;2210925;67;1323;-69
2021/12/09 04:29:40;;;;;;;;;;;;;;;;;;2212070;59;1508;-69
2021/12/09 04:32:13;;;;;;;;;;;;;;;;;;2210446;59;1205;-69
2021/12/09 04:34:47;;;;;;;;;;;;;;;;;;2208824;67;1208;-69
2021/12/09 04:37:20;;;;;;;;;;;;;;;;;;2209988;59;1628;-69
2021/12/09 04:39:54;;;;;;;;;;;;;;;;;;2210591;67;1212;-69
2021/12/09 04:42:30;;;;;;;;;;;;;;;;;;2210432;67;1968;-69
2021/12/09 04:45:03;;;;;;;;;;;;;;;;;;2210559;67;1192;-69
2021/12/09 04:47:37;;;;;;;;;;;;;;;;;;2210355;67;1284;-69
2021/12/09 04:50:11;;;;;;;;;;;;;;;;;;2210898;67;1276;-69
2021/12/09 04:52:44;;;;;;;;;;;;;;;;;;2207438;59;1350;-69
2021/12/09 04:55:18;;;;;;;;;;;;;;;;;;2210382;67;1153;-69
2021/12/09 04:57:54;;;;;;;;;;;;;;;;;;2210533;67;1216;-69
2021/12/09 05:00:42;;;;;;;;;;;;;;;;;;2211333;67;1220;-69
2021/12/09 05:03:15;;;;;;;;;;;;;;;;;;2210421;59;1985;-69
2021/12/09 05:05:49;;;;;;;;;;;;;;;;;;2208585;67;1209;-69
2021/12/09 05:08:26;;;;;;;;;;;;;;;;;;2210005;59;1173;-69
2021/12/09 05:11:06;;;;;;;;;;;;;;;;;;2207535;67;1510;-69
2021/12/09 05:13:44;;;;;;;;;;;;;;;;;;2210263;59;1490;-69
2021/12/09 05:16:18;;;;;;;;;;;;;;;;;;2207483;59;1135;-69
2021/12/09 05:18:57;;;;;;;;;;;;;;;;;;2210154;59;1413;-69
2021/12/09 05:21:39;;;;;;;;;;;;;;;;;;2211263;59;1698;-69
2021/12/09 05:24:13;;;;;;;;;;;;;;;;;;2209806;59;1995;-69
2021/12/09 05:26:50;;;;;;;;;;;;;;;;;;2210567;59;1339;-70
2021/12/09 05:29:30;;;;;;;;;;;;;;;;;;2211327;59;1366;-70
2021/12/09 05:32:17;;;;;;;;;;;;;;;;;;2209842;59;1432;-69
2021/12/09 05:34:51;;;;;;;;;;;;;;;;;;2207248;67;1253;-69
2021/12/09 05:37:25;;;;;;;;;;;;;;;;;;2210273;59;2416;-70
2021/12/09 05:40:00;;;;;;;;;;;;;;;;;;2210249;59;1198;-70
2021/12/09 05:42:35;;;;;;;;;;;;;;;;;;2209724;59;1921;-69
2021/12/09 05:45:12;;;;;;;;;;;;;;;;;;2209864;59;1266;-70
2021/12/09 05:47:45;;;;;;;;;;;;;;;;;;2209938;67;1226;-69
2021/12/09 05:50:18;;;;;;;;;;;;;;;;;;2211023;59;1243;-69
2021/12/09 05:52:52;;;;;;;;;;;;;;;;;;2210756;67;1165;-70
2021/12/09 05:55:25;;;;;;;;;;;;;;;;;;2211598;59;1121;-70
2021/12/09 05:57:58;;;;;;;;;;;;;;;;;;2211433;59;1323;-70
2021/12/09 06:00:42;;;;;;;;;;;;;;;;;;2211275;59;1189;-70
2021/12/09 06:03:15;;;;;;;;;;;;;;;;;;2209643;59;1920;-70
2021/12/09 06:05:49;;;;;;;;;;;;;;;;;;2209735;67;1217;-70
2021/12/09 06:08:22;;;;;;;;;;;;;;;;;;2210360;59;1203;-70
2021/12/09 06:10:56;;;;;;;;;;;;;;;;;;2206038;59;2210;-70
2021/12/09 06:13:31;;;;;;;;;;;;;;;;;;2210834;59;1282;-70
2021/12/09 06:16:07;;;;;;;;;;;;;;;;;;2209442;59;1180;-70
2021/12/09 06:18:41;;;;;;;;;;;;;;;;;;2210901;59;1543;-70
2021/12/09 06:21:14;;;;;;;;;;;;;;;;;;2211300;59;1624;-70
2021/12/09 06:23:48;;;;;;;;;;;;;;;;;;2210527;59;1972;-71
2021/12/09 06:26:28;;;;;;;;;;;;;;;;;;2210209;67;1192;-70
2021/12/09 06:29:02;;;;;;;;;;;;;;;;;;2210855;59;1717;-70
2021/12/09 06:31:39;;;;;;;;;;;;;;;;;;2211766;59;1397;-70
2021/12/09 06:34:13;;;;;;;;;;;;;;;;;;2210511;59;2514;-70
2021/12/09 06:36:46;;;;;;;;;;;;;;;;;;2211601;59;1485;-70
2021/12/09 06:39:20;;;;;;;;;;;;;;;;;;2206573;59;1235;-70
2021/12/09 06:41:53;;;;;;;;;;;;;;;;;;2211616;67;1291;-70
2021/12/09 06:44:27;;;;;;;;;;;;;;;;;;2211217;59;1933;-70
2021/12/09 06:47:02;;;;;;;;;;;;;;;;;;2212046;67;1109;-70
2021/12/09 06:49:39;;;;;;;;;;;;;;;;;;2210695;59;1657;-70
2021/12/09 06:52:14;;;;;;;;;;;;;;;;;;2210892;59;1261;-70
2021/12/09 06:54:47;;;;;;;;;;;;;;;;;;2207653;67;1355;-70
2021/12/09 06:57:21;;;;;;;;;;;;;;;;;;2210908;59;1136;-70
2021/12/09 06:59:54;;;;;;;;;;;;;;;;;;2211270;67;1231;-70
2021/12/09 07:02:30;;;;;;;;;;;;;;;;;;2208813;59;1294;-70
2021/12/09 07:05:04;;;;;;;;;;;;;;;;;;2207988;59;1941;-69
2021/12/09 07:07:37;;;;;;;;;;;;;;;;;;2206054;59;1432;-70
2021/12/09 07:10:13;;;;;;;;;;;;;;;;;;2210351;59;1181;-70
2021/12/09 07:12:47;;;;;;;;;;;;;;;;;;2211496;59;1341;-70
2021/12/09 07:15:20;;;;;;;;;;;;;;;;;;2210851;59;1308;-70
2021/12/09 07:17:57;;;;;;;;;;;;;;;;;;2210058;59;2143;-70
2021/12/09 07:20:30;;;;;;;;;;;;;;;;;;2209816;59;1592;-70
2021/12/09 07:23:06;;;;;;;;;;;;;;;;;;2209853;59;1969;-70
2021/12/09 07:25:39;;;;;;;;;;;;;;;;;;2210610;60;1319;-70
2021/12/09 07:28:16;;;;;;;;;;;;;;;;;;2208385;59;1670;-70
2021/12/09 07:30:49;;;;;;;;;;;;;;;;;;2210025;59;1420;-70
2021/12/09 07:33:25;;;;;;;;;;;;;;;;;;2208542;59;1333;-70
2021/12/09 07:35:58;;;;;;;;;;;;;;;;;;2207900;59;1228;-70
2021/12/09 07:38:31;;;;;;;;;;;;;;;;;;2208156;59;2512;-70
2021/12/09 07:41:05;;;;;;;;;;;;;;;;;;2209127;59;2661;-70
2021/12/09 07:43:38;;;;;;;;;;;;;;;;;;2208540;59;1925;-69
2021/12/09 07:46:12;;;;;;;;;;;;;;;;;;2209227;59;1789;-69
2021/12/09 07:48:49;;;;;;;;;;;;;;;;;;2210467;67;1148;-69
2021/12/09 07:51:22;;;;;;;;;;;;;;;;;;2210342;59;1764;-70
2021/12/09 07:53:59;;;;;;;;;;;;;;;;;;2210334;59;1759;-69
2021/12/09 07:56:32;;;;;;;;;;;;;;;;;;2210338;67;1375;-70
2021/12/09 07:59:06;;;;;;;;;;;;;;;;;;2211428;59;2476;-70
2021/12/09 08:01:39;;;;;;;;;;;;;;;;;;2209867;59;1285;-70
2021/12/09 08:04:15;;;;;;;;;;;;;;;;;;2208041;59;1930;-70
2021/12/09 08:06:56;;;;;;;;;;;;;;;;;;2210015;59;1306;-70
2021/12/09 08:09:29;;;;;;;;;;;;;;;;;;2208905;59;1878;-70
2021/12/09 08:12:02;;;;;;;;;;;;;;;;;;2210458;59;1618;-70
2021/12/09 08:14:39;;;;;;;;;;;;;;;;;;2211374;59;1143;-70
2021/12/09 08:17:44;;;;;;;;;;;;;;;;;;2211025;59;2358;-70
2021/12/09 08:20:11;;;;;;;;;;;;;;;;;;2212034;59;2058;-71
2021/12/09 08:22:46;;;;;;;;;;;;;;;;;;2211804;59;1373;-70
2021/12/09 08:25:19;;;;;;;;;;;;;;;;;;2209770;67;1981;-70
2021/12/09 08:27:53;;;;;;;;;;;;;;;;;;2209934;59;1376;-70
2021/12/09 08:30:27;;;;;;;;;;;;;;;;;;2211819;59;1404;-70
2021/12/09 08:33:05;;;;;;;;;;;;;;;;;;2211105;59;1234;-70
2021/12/09 08:35:41;;;;;;;;;;;;;;;;;;2210001;59;1296;-70
2021/12/09 08:38:14;;;;;;;;;;;;;;;;;;2210082;59;1182;-70
2021/12/09 08:40:50;;;;;;;;;;;;;;;;;;2209202;59;2585;-70
2021/12/09 08:43:24;;;;;;;;;;;;;;;;;;2209537;59;1178;-70
2021/12/09 08:45:58;;;;;;;;;;;;;;;;;;2210017;67;1109;-70
2021/12/09 08:48:31;;;;;;;;;;;;;;;;;;2206108;59;1733;-71
2021/12/09 08:51:20;;;;;;;;;;;;;;;;;;;;;
2021/12/09 09:00:49;;;;;;;;;;;;;;;;;;2207169;59;1527;-67
2021/12/09 09:03:29;;;;;;;;;;;;;;;;;;2210876;59;1551;-67
2021/12/09 09:06:03;;;;;;;;;;;;;;;;;;2210115;59;1219;-67
2021/12/09 09:08:43;;;;;;;;;;;;;;;;;;2209495;59;1341;-68
2021/12/09 09:11:16;;;;;;;;;;;;;;;;;;2207590;59;1329;-68
2021/12/09 09:13:52;;;;;;;;;;;;;;;;;;2209252;59;1659;-68
2021/12/09 09:19:38;;;;;;;;;;;;;;;;;;2209392;59;2124;-67
2021/12/09 09:22:14;;;;;;;;;;;;;;;;;;2210469;59;1344;-67
2021/12/09 09:24:50;;;;;;;;;;;;;;;;;;2210516;59;1941;-68
2021/12/09 09:27:47;;;;;;;;;;;;;;;;;;2208062;59;1729;-68
2021/12/09 09:30:22;;;;;;;;;;;;;;;;;;2211966;59;1494;-68
2021/12/09 09:33:29;;;;;;;;;;;;;;;;;;2211034;59;1288;-67
2021/12/09 09:36:03;;;;;;;;;;;;;;;;;;2210594;59;1774;-68
2021/12/09 09:38:37;;;;;;;;;;;;;;;;;;2210464;59;1722;-68
2021/12/09 09:41:37;;;;;;;;;;;;;;;;;;2210134;59;2570;-68
2021/12/09 09:44:16;;;;;;;;;;;;;;;;;;2209198;59;1929;-68
2021/12/09 09:47:10;;;;;;;;;;;;;;;;;;2210950;59;1537;-68
2021/12/09 09:52:37;;;;;;;;;;;;;;;;;;2211774;59;1212;-68
2021/12/09 09:56:04;;;;;;;;;;;;;;;;;;;;;
2021/12/09 10:05:15;;;;;;;;;;;;;;;;;;2203958;59;1956;-68
2021/12/09 10:08:08;;;;;;;;;;;;;;;;;;2210855;59;1298;-68
2021/12/09 10:10:46;;;;;;;;;;;;;;;;;;2208546;59;1462;-68
2021/12/09 10:13:21;;;;;;;;;;;;;;;;;;2206057;59;1729;-68
2021/12/09 10:16:08;;;;;;;;;;;;;;;;;;;;;
2021/12/09 10:18:46;;;;;;;;;;;;;;;;;;2210935;59;1369;-68
2021/12/09 10:21:45;;;;;;;;;;;;;;;;;;2211510;59;1548;-68
2021/12/09 10:27:08;;;;;;;;;;;;;;;;;;2210499;59;2957;-68
2021/12/09 10:29:48;;;;;;;;;;;;;;;;;;2211111;59;1926;-68
2021/12/09 10:32:32;;;;;;;;;;;;;;;;;;2211424;59;1361;-68
2021/12/09 10:35:07;;;;;;;;;;;;;;;;;;2210813;59;1176;-68
2021/12/09 10:37:41;;;;;;;;;;;;;;;;;;2211863;59;1268;-68
2021/12/09 10:40:21;;;;;;;;;;;;;;;;;;2211584;59;1610;-68
2021/12/09 10:46:05;;;;;;;;;;;;;;;;;;2210583;59;1920;-68
2021/12/09 10:48:44;;;;;;;;;;;;;;;;;;2211346;67;1263;-68
2021/12/09 10:51:36;;;;;;;;;;;;;;;;;;2211432;59;1350;-67
2021/12/09 10:54:11;;;;;;;;;;;;;;;;;;2211064;59;1454;-68
2021/12/09 10:57:02;;;;;;;;;;;;;;;;;;;;;
2021/12/09 11:00:28;;;;;;;;;;;;;;;;;;2208582;59;1191;-68
2021/12/09 11:03:03;;;;;;;;;;;;;;;;;;2210379;59;1210;-68
2021/12/09 11:05:37;;;;;;;;;;;;;;;;;;2210039;59;1939;-68
2021/12/09 11:08:32;;;;;;;;;;;;;;;;;;2211118;59;1292;-68
2021/12/09 11:11:15;;;;;;;;;;;;;;;;;;2211386;67;1184;-68
2021/12/09 11:14:00;;;;;;;;;;;;;;;;;;2210937;59;1617;-68
2021/12/09 11:16:36;;;;;;;;;;;;;;;;;;2212124;59;1179;-68
2021/12/09 11:19:12;;;;;;;;;;;;;;;;;;2211390;59;1623;-68
2021/12/09 11:21:55;;;;;;;;;;;;;;;;;;2212199;67;1929;-68
2021/12/09 11:24:43;;;;;;;;;;;;;;;;;;2210892;59;1992;-68
2021/12/09 11:27:25;;;;;;;;;;;;;;;;;;2210045;59;1414;-69
2021/12/09 11:30:09;;;;;;;;;;;;;;;;;;2210937;59;2204;-68
2021/12/09 11:33:07;;;;;;;;;;;;;;;;;;2211337;59;1405;-68
2021/12/09 11:35:43;;;;;;;;;;;;;;;;;;2210131;59;1753;-68
2021/12/09 11:41:42;;;;;;;;;;;;;;;;;;2208390;59;2577;-68
2021/12/09 11:44:16;;;;;;;;;;;;;;;;;;2208802;59;2389;-68
2021/12/09 11:46:54;;;;;;;;;;;;;;;;;;2210986;67;1928;-68
2021/12/09 11:49:36;;;;;;;;;;;;;;;;;;2212561;67;1240;-68
2021/12/09 11:52:13;;;;;;;;;;;;;;;;;;2211323;59;1299;-68
2021/12/09 11:54:54;;;;;;;;;;;;;;;;;;2211948;67;1082;-68
2021/12/09 12:07:08;;;;;;;;;;;;;;;;;;2211257;59;1994;-68
2021/12/09 12:12:43;;;;;;;;;;;;;;;;;;2210421;59;1438;-68
2021/12/09 12:15:48;;;;;;;;;;;;;;;;;;2210372;59;1672;-68
2021/12/09 12:18:34;;;;;;;;;;;;;;;;;;2210320;59;1420;-68
2021/12/09 12:21:58;;;;;;;;;;;;;;;;;;2210820;59;1634;-68
2021/12/09 12:25:02;;;;;;;;;;;;;;;;;;2210240;59;1450;-68
2021/12/09 12:27:48;;;;;;;;;;;;;;;;;;2211244;67;1163;-68
2021/12/09 12:30:43;;;;;;;;;;;;;;;;;;2212996;59;1494;-68
2021/12/09 12:39:10;;;;;;;;;;;;;;;;;;2211047;67;2586;-68
2021/12/09 12:41:58;;;;;;;;;;;;;;;;;;2211499;67;1422;-68
2021/12/09 12:44:36;;;;;;;;;;;;;;;;;;2209266;59;2454;-68
2021/12/09 12:47:36;;;;;;;;;;;;;;;;;;2210730;59;1198;-68
2021/12/09 12:50:10;;;;;;;;;;;;;;;;;;2211173;67;1226;-68
2021/12/09 12:52:45;;;;;;;;;;;;;;;;;;2210569;59;2125;-69
2021/12/09 12:55:24;;;;;;;;;;;;;;;;;;2210219;59;1570;-68
2021/12/09 12:58:11;;;;;;;;;;;;;;;;;;2209578;59;1509;-68
2021/12/09 13:00:52;;;;;;;;;;;;;;;;;;2211282;59;2531;-68
2021/12/09 13:03:33;;;;;;;;;;;;;;;;;;2210855;59;1589;-68
2021/12/09 13:06:11;;;;;;;;;;;;;;;;;;2210307;59;1944;-68
2021/12/09 13:08:56;;;;;;;;;;;;;;;;;;2207487;59;2168;-68
2021/12/09 13:11:42;;;;;;;;;;;;;;;;;;2211797;59;1301;-68
2021/12/09 13:14:23;;;;;;;;;;;;;;;;;;2210167;59;1774;-68
2021/12/09 13:17:11;;;;;;;;;;;;;;;;;;2210114;59;1321;-69
2021/12/09 13:19:58;;;;;;;;;;;;;;;;;;2212627;59;1670;-68
2021/12/09 13:22:37;;;;;;;;;;;;;;;;;;2210799;59;1266;-69
2021/12/09 13:25:19;;;;;;;;;;;;;;;;;;2210819;67;1983;-68
2021/12/09 13:27:58;;;;;;;;;;;;;;;;;;2210184;59;1693;-68
2021/12/09 13:33:42;;;;;;;;;;;;;;;;;;2210748;59;1288;-68
2021/12/09 13:36:32;;;;;;;;;;;;;;;;;;2207159;67;1521;-68
2021/12/09 13:39:20;;;;;;;;;;;;;;;;;;2210750;59;1106;-68
2021/12/09 13:47:46;;;;;;;;;;;;;;;;;;2210456;67;2238;-68
2021/12/09 13:50:45;;;;;;;;;;;;;;;;;;2210406;67;1197;-69
2021/12/09 13:56:09;;;;;;;;;;;;;;;;;;2211060;67;1228;-68
2021/12/09 13:58:48;;;;;;;;;;;;;;;;;;2206960;67;1170;-68
2021/12/09 14:01:22;;;;;;;;;;;;;;;;;;2210005;59;1227;-68
2021/12/09 14:03:55;;;;;;;;;;;;;;;;;;2210282;67;1094;-68
2021/12/09 14:06:33;;;;;;;;;;;;;;;;;;2210287;67;1967;-69
2021/12/09 14:09:06;;;;;;;;;;;;;;;;;;2209951;59;1185;-68
2021/12/09 14:11:47;;;;;;;;;;;;;;;;;;2209346;59;1224;-69
2021/12/09 14:14:25;;;;;;;;;;;;;;;;;;2208295;59;1245;-68
2021/12/09 14:17:02;;;;;;;;;;;;;;;;;;2211037;67;1086;-69
2021/12/09 14:22:30;;;;;;;;;;;;;;;;;;2209791;59;1876;-68
2021/12/09 14:25:09;;;;;;;;;;;;;;;;;;2208330;67;1158;-69
2021/12/09 14:27:43;;;;;;;;;;;;;;;;;;2208647;59;1701;-69
2021/12/09 14:30:17;;;;;;;;;;;;;;;;;;2208060;59;1562;-69
2021/12/09 14:32:54;;;;;;;;;;;;;;;;;;2210065;67;1226;-68
2021/12/09 14:35:30;;;;;;;;;;;;;;;;;;2206853;59;1637;-68
2021/12/09 14:38:06;;;;;;;;;;;;;;;;;;2211178;59;1227;-68
2021/12/09 14:40:43;;;;;;;;;;;;;;;;;;2210082;59;1818;-69
2021/12/09 14:43:17;;;;;;;;;;;;;;;;;;2211343;67;1088;-68
2021/12/09 14:45:56;;;;;;;;;;;;;;;;;;2209821;59;2596;-68
2021/12/09 14:48:39;;;;;;;;;;;;;;;;;;2210011;59;2340;-69
2021/12/09 14:51:17;;;;;;;;;;;;;;;;;;2212417;59;3595;-69
2021/12/09 14:53:54;;;;;;;;;;;;;;;;;;2198682;59;1452;-68
2021/12/09 14:56:30;;;;;;;;;;;;;;;;;;2199453;59;1178;-69
2021/12/09 14:59:17;;;;;;;;;;;;;;;;;;2200102;67;1175;-68
2021/12/09 15:01:51;;;;;;;;;;;;;;;;;;2199563;59;1301;-69
2021/12/09 15:04:32;;;;;;;;;;;;;;;;;;2195402;59;1410;-69
2021/12/09 15:07:07;;;;;;;;;;;;;;;;;;2199430;67;1999;-69
2021/12/09 15:09:44;;;;;;;;;;;;;;;;;;2199407;59;1310;-68
2021/12/09 15:12:18;;;;;;;;;;;;;;;;;;2199403;59;1221;-68
2021/12/09 15:14:57;;;;;;;;;;;;;;;;;;2199226;59;1147;-69
2021/12/09 15:17:30;;;;;;;;;;;;;;;;;;2199569;59;1515;-68
2021/12/09 15:20:07;;;;;;;;;;;;;;;;;;2199277;59;1652;-68
2021/12/09 15:22:43;;;;;;;;;;;;;;;;;;2199253;59;1317;-69
2021/12/09 15:25:19;;;;;;;;;;;;;;;;;;2199206;59;1299;-69
2021/12/09 15:27:56;;;;;;;;;;;;;;;;;;2199324;67;1914;-68
2021/12/09 15:30:41;;;;;;;;;;;;;;;;;;2199812;59;1548;-69
2021/12/09 15:33:15;;;;;;;;;;;;;;;;;;2199230;60;1306;-69
2021/12/09 15:35:48;;;;;;;;;;;;;;;;;;2200223;67;1238;-69
2021/12/09 15:38:23;;;;;;;;;;;;;;;;;;2197614;59;1373;-69
2021/12/09 15:40:59;;;;;;;;;;;;;;;;;;2199262;59;1472;-69
2021/12/09 15:43:32;;;;;;;;;;;;;;;;;;2199034;59;1239;-69
2021/12/09 15:46:07;;;;;;;;;;;;;;;;;;2198544;67;2607;-69
2021/12/09 15:48:40;;;;;;;;;;;;;;;;;;2198225;59;2351;-69
2021/12/09 15:51:15;;;;;;;;;;;;;;;;;;2198346;59;1927;-68
2021/12/09 15:53:49;;;;;;;;;;;;;;;;;;2199258;67;1136;-69
2021/12/09 15:56:27;;;;;;;;;;;;;;;;;;2199661;67;1168;-69
2021/12/09 15:59:01;;;;;;;;;;;;;;;;;;2199312;59;1035;-68
2021/12/09 16:01:35;;;;;;;;;;;;;;;;;;2198124;59;1799;-69
2021/12/09 16:04:09;;;;;;;;;;;;;;;;;;2198921;59;1161;-69
2021/12/09 16:06:44;;;;;;;;;;;;;;;;;;2199328;59;1932;-69
2021/12/09 16:09:18;;;;;;;;;;;;;;;;;;2199255;67;1096;-69
2021/12/09 16:11:59;;;;;;;;;;;;;;;;;;2199845;59;1375;-68
2021/12/09 16:14:33;;;;;;;;;;;;;;;;;;2199540;67;1263;-68
2021/12/09 16:17:07;;;;;;;;;;;;;;;;;;2199318;59;1780;-69
2021/12/09 16:19:42;;;;;;;;;;;;;;;;;;2199722;59;1488;-69
2021/12/09 16:22:31;;;;;;;;;;;;;;;;;;2198429;59;2076;-68
2021/12/09 16:25:07;;;;;;;;;;;;;;;;;;2199481;59;1217;-69
2021/12/09 16:27:44;;;;;;;;;;;;;;;;;;2196682;67;1985;-69
2021/12/09 16:30:18;;;;;;;;;;;;;;;;;;2199119;59;1540;-69
2021/12/09 16:32:52;;;;;;;;;;;;;;;;;;2199485;67;1176;-69
2021/12/09 16:35:27;;;;;;;;;;;;;;;;;;2199319;59;1199;-69
2021/12/09 16:38:00;;;;;;;;;;;;;;;;;;2199563;59;1034;-69
2021/12/09 16:40:35;;;;;;;;;;;;;;;;;;2199977;67;1163;-69
2021/12/09 16:43:12;;;;;;;;;;;;;;;;;;2199140;67;1290;-69
2021/12/09 16:45:46;;;;;;;;;;;;;;;;;;2199045;59;1149;-69
2021/12/09 16:48:20;;;;;;;;;;;;;;;;;;2194485;59;2310;-69
2021/12/09 16:50:55;;;;;;;;;;;;;;;;;;2195111;59;2401;-69
2021/12/09 16:53:31;;;;;;;;;;;;;;;;;;2198488;60;1073;-69
2021/12/09 16:56:11;;;;;;;;;;;;;;;;;;2198744;67;1187;-69
2021/12/09 16:58:58;;;;;;;;;;;;;;;;;;2199579;67;1129;-69
2021/12/09 17:01:32;;;;;;;;;;;;;;;;;;2199186;59;1200;-69
2021/12/09 17:04:08;;;;;;;;;;;;;;;;;;2198947;67;1152;-69
2021/12/09 17:06:41;;;;;;;;;;;;;;;;;;2199234;59;1924;-68
2021/12/09 17:09:14;;;;;;;;;;;;;;;;;;2198142;67;1031;-69
2021/12/09 17:11:49;;;;;;;;;;;;;;;;;;2203749;59;1414;-69
2021/12/09 17:14:26;;;;;;;;;;;;;;;;;;2203150;59;1089;-69
2021/12/09 17:16:59;;;;;;;;;;;;;;;;;;2203319;67;1180;-68
2021/12/09 17:19:33;;;;;;;;;;;;;;;;;;2200072;67;1558;-69
2021/12/09 17:22:07;;;;;;;;;;;;;;;;;;2202513;59;1261;-69
2021/12/09 17:24:41;;;;;;;;;;;;;;;;;;2203900;59;1609;-69
2021/12/09 17:27:14;;;;;;;;;;;;;;;;;;2203565;67;1940;-68
2021/12/09 17:29:50;;;;;;;;;;;;;;;;;;2202635;59;1628;-68
2021/12/09 17:32:23;;;;;;;;;;;;;;;;;;2202488;59;1314;-69
2021/12/09 17:34:56;;;;;;;;;;;;;;;;;;2202527;67;1048;-68
2021/12/09 17:37:29;;;;;;;;;;;;;;;;;;2198927;59;1431;-69
2021/12/09 17:40:03;;;;;;;;;;;;;;;;;;2202819;67;1165;-69
2021/12/09 17:42:36;;;;;;;;;;;;;;;;;;2202339;67;1253;-68
2021/12/09 17:45:18;;;;;;;;;;;;;;;;;;2203560;67;1082;-68
2021/12/09 17:47:53;;;;;;;;;;;;;;;;;;2202471;67;2520;-69
2021/12/09 17:50:26;;;;;;;;;;;;;;;;;;2201568;59;2613;-69
2021/12/09 17:53:01;;;;;;;;;;;;;;;;;;2203509;59;1195;-69
2021/12/09 17:55:36;;;;;;;;;;;;;;;;;;2203261;59;1259;-69
2021/12/09 17:58:10;;;;;;;;;;;;;;;;;;2203652;67;1129;-68
2021/12/09 18:00:47;;;;;;;;;;;;;;;;;;2204041;59;1311;-69
2021/12/09 18:03:20;;;;;;;;;;;;;;;;;;2203536;59;1235;-69
2021/12/09 18:05:54;;;;;;;;;;;;;;;;;;2203508;67;1218;-69
2021/12/09 18:08:27;;;;;;;;;;;;;;;;;;2203831;59;1932;-69
2021/12/09 18:11:00;;;;;;;;;;;;;;;;;;2203116;67;1153;-69
2021/12/09 18:13:34;;;;;;;;;;;;;;;;;;2203126;59;1431;-69
2021/12/09 18:16:13;;;;;;;;;;;;;;;;;;2202857;59;1224;-69
2021/12/09 18:18:46;;;;;;;;;;;;;;;;;;2199742;59;1506;-69
2021/12/09 18:21:19;;;;;;;;;;;;;;;;;;2203471;59;1694;-69
2021/12/09 18:23:52;;;;;;;;;;;;;;;;;;2202598;59;1272;-69
2021/12/09 18:26:29;;;;;;;;;;;;;;;;;;2203683;59;1860;-69
2021/12/09 18:29:03;;;;;;;;;;;;;;;;;;2203406;67;1119;-69
2021/12/09 18:31:39;;;;;;;;;;;;;;;;;;2200139;59;1813;-69
2021/12/09 18:34:14;;;;;;;;;;;;;;;;;;2202428;59;2040;-69
2021/12/09 18:36:49;;;;;;;;;;;;;;;;;;2204191;67;1160;-69
2021/12/09 18:39:22;;;;;;;;;;;;;;;;;;2203588;59;1078;-69
2021/12/09 18:41:56;;;;;;;;;;;;;;;;;;2199841;67;1273;-69
2021/12/09 18:44:29;;;;;;;;;;;;;;;;;;2203670;67;1162;-69
2021/12/09 18:47:05;;;;;;;;;;;;;;;;;;2200197;67;1926;-69
2021/12/09 18:49:38;;;;;;;;;;;;;;;;;;2202608;59;2648;-69
2021/12/09 18:52:11;;;;;;;;;;;;;;;;;;2201949;59;2561;-69
2021/12/09 18:54:44;;;;;;;;;;;;;;;;;;2202912;59;1161;-69
2021/12/09 18:57:18;;;;;;;;;;;;;;;;;;2203576;67;1143;-69
2021/12/09 18:59:51;;;;;;;;;;;;;;;;;;2203352;59;1303;-69
2021/12/09 19:02:27;;;;;;;;;;;;;;;;;;2203782;59;1208;-69
2021/12/09 19:05:00;;;;;;;;;;;;;;;;;;2204309;67;1281;-69
2021/12/09 19:07:33;;;;;;;;;;;;;;;;;;2203167;59;1938;-69
2021/12/09 19:10:07;;;;;;;;;;;;;;;;;;2202639;59;1158;-69
2021/12/09 19:12:41;;;;;;;;;;;;;;;;;;2203025;59;1404;-68
2021/12/09 19:15:15;;;;;;;;;;;;;;;;;;2202437;59;1213;-69